createdAt,value
2023-01-19T00:01:44.183Z,6.88
2023-01-19T00:04:11.714Z,6.38
2023-01-19T00:06:39.241Z,5.95
2023-01-19T00:09:06.713Z,6.30
2023-01-19T00:11:34.198Z,7.00
2023-01-19T00:14:01.740Z,6.03
2023-01-19T00:16:30.554Z,7.15
2023-01-19T00:18:58.189Z,7.50
2023-01-19T00:21:25.650Z,6.53
2023-01-19T00:23:53.160Z,7.50
2023-01-19T00:26:22.151Z,7.15
2023-01-19T00:28:50.687Z,7.22
2023-01-19T00:31:20.465Z,6.65
2023-01-19T00:33:51.418Z,7.10
2023-01-19T00:36:19.323Z,6.75
2023-01-19T00:38:47.380Z,8.00
2023-01-19T00:41:14.878Z,7.72
2023-01-19T00:43:41.429Z,8.65
2023-01-19T00:46:08.987Z,7.20
2023-01-19T00:48:37.499Z,6.88
2023-01-19T00:51:06.608Z,8.00
2023-01-19T00:53:34.099Z,7.57
2023-01-19T00:56:01.597Z,7.50
2023-01-19T00:58:29.100Z,8.10
2023-01-19T01:00:57.763Z,7.20
2023-01-19T01:03:27.822Z,8.60
2023-01-19T01:05:55.365Z,6.03
2023-01-19T01:08:24.201Z,8.00
2023-01-19T01:10:52.059Z,6.63
2023-01-19T01:13:23.591Z,6.55
2023-01-19T01:15:52.741Z,8.05
2023-01-19T01:18:20.576Z,8.13
2023-01-19T01:20:48.242Z,6.68
2023-01-19T01:23:15.794Z,6.88
2023-01-19T01:25:46.514Z,7.50
2023-01-19T01:28:13.964Z,7.38
2023-01-19T01:30:43.206Z,6.65
2023-01-19T01:33:11.426Z,7.40
2023-01-19T01:35:39.656Z,7.10
2023-01-19T01:38:07.589Z,7.60
2023-01-19T01:40:35.176Z,7.10
2023-01-19T01:43:04.000Z,6.70
2023-01-19T01:45:34.652Z,8.38
2023-01-19T01:48:05.406Z,6.20
2023-01-19T01:50:35.428Z,6.53
2023-01-19T01:53:07.325Z,8.10
2023-01-19T01:55:36.498Z,7.22
2023-01-19T01:58:06.467Z,7.38
2023-01-19T02:00:54.675Z,8.20
2023-01-19T02:03:22.764Z,7.28
2023-01-19T02:05:50.367Z,7.43
2023-01-19T02:08:38.938Z,7.15
2023-01-19T02:11:24.623Z,6.07
2023-01-19T02:13:53.907Z,6.35
2023-01-19T02:16:21.459Z,6.60
2023-01-19T02:18:49.459Z,7.63
2023-01-19T02:21:21.078Z,6.60
2023-01-19T02:23:51.180Z,8.50
2023-01-19T02:26:20.426Z,7.30
2023-01-19T02:28:51.251Z,7.47
2023-01-19T02:31:19.244Z,7.20
2023-01-19T02:33:46.841Z,7.07
2023-01-19T02:36:16.587Z,7.28
2023-01-19T02:38:45.940Z,6.75
2023-01-19T02:41:18.095Z,8.77
2023-01-19T02:43:47.204Z,9.00
2023-01-19T02:46:15.483Z,8.50
2023-01-19T02:48:43.761Z,8.10
2023-01-19T02:51:13.556Z,7.70
2023-01-19T02:54:01.452Z,7.85
2023-01-19T02:56:40.814Z,7.65
2023-01-19T02:59:16.258Z,7.63
2023-01-19T03:01:57.702Z,6.97
2023-01-19T03:04:29.954Z,7.35
2023-01-19T03:07:02.176Z,7.05
2023-01-19T03:09:33.608Z,7.40
2023-01-19T03:12:07.927Z,6.43
2023-01-19T03:14:40.032Z,7.85
2023-01-19T03:17:08.695Z,8.48
2023-01-19T03:19:38.998Z,8.30
2023-01-19T03:22:11.639Z,7.32
2023-01-19T03:24:41.520Z,7.88
2023-01-19T03:27:15.195Z,8.00
2023-01-19T03:29:46.583Z,7.43
2023-01-19T03:32:17.158Z,7.85
2023-01-19T03:34:45.195Z,7.70
2023-01-19T03:37:14.392Z,8.23
2023-01-19T03:39:41.891Z,7.88
2023-01-19T03:42:13.652Z,7.50
2023-01-19T03:44:42.637Z,7.28
2023-01-19T03:47:12.382Z,7.38
2023-01-19T03:49:40.409Z,7.55
2023-01-19T03:52:07.908Z,8.30
2023-01-19T03:54:35.549Z,7.45
2023-01-19T03:57:03.493Z,7.70
2023-01-19T03:59:32.291Z,7.65
2023-01-19T04:02:00.493Z,8.20
2023-01-19T04:04:28.025Z,7.60
2023-01-19T04:06:55.868Z,8.40
2023-01-19T04:09:23.381Z,8.73
2023-01-19T04:11:51.334Z,7.90
2023-01-19T04:14:19.047Z,9.27
2023-01-19T04:16:47.852Z,6.97
2023-01-19T04:19:15.449Z,9.20
2023-01-19T04:21:42.953Z,8.02
2023-01-19T04:24:10.591Z,8.85
2023-01-19T04:26:38.075Z,7.63
2023-01-19T04:29:05.595Z,9.07
2023-01-19T04:31:35.466Z,9.10
2023-01-19T04:34:04.417Z,8.45
2023-01-19T04:36:31.964Z,8.57
2023-01-19T04:38:59.455Z,9.10
2023-01-19T04:41:26.956Z,8.88
2023-01-19T04:43:54.436Z,8.63
2023-01-19T04:46:21.999Z,9.13
2023-01-19T04:48:49.555Z,9.77
2023-01-19T04:51:18.393Z,8.55
2023-01-19T04:53:45.887Z,9.18
2023-01-19T04:56:13.465Z,8.48
2023-01-19T04:58:41.121Z,8.93
2023-01-19T05:01:09.418Z,8.23
2023-01-19T05:03:37.083Z,9.77
2023-01-19T05:06:04.930Z,8.85
2023-01-19T05:08:33.796Z,8.82
2023-01-19T05:11:01.388Z,9.40
2023-01-19T05:13:28.991Z,9.57
2023-01-19T05:15:56.517Z,10.30
2023-01-19T05:18:24.147Z,9.95
2023-01-19T05:20:51.619Z,10.75
2023-01-19T05:23:19.146Z,10.40
2023-01-19T05:25:47.974Z,10.48
2023-01-19T05:28:16.686Z,11.03
2023-01-19T05:30:44.248Z,9.95
2023-01-19T05:33:11.736Z,10.40
2023-01-19T05:35:39.190Z,10.95
2023-01-19T05:38:06.685Z,10.90
2023-01-19T05:40:34.405Z,10.85
2023-01-19T05:43:05.208Z,12.10
2023-01-19T05:45:33.426Z,10.23
2023-01-19T05:48:01.267Z,12.48
2023-01-19T05:50:28.765Z,12.27
2023-01-19T05:52:56.366Z,12.87
2023-01-19T05:55:24.047Z,11.60
2023-01-19T05:57:51.531Z,12.57
2023-01-19T06:00:21.436Z,13.00
2023-01-19T06:02:49.281Z,13.30
2023-01-19T06:05:17.103Z,11.90
2023-01-19T06:07:44.571Z,12.53
2023-01-19T06:10:12.516Z,11.48
2023-01-19T06:12:41.353Z,11.25
2023-01-19T06:15:09.495Z,11.13
2023-01-19T06:17:38.540Z,11.20
2023-01-19T06:20:06.972Z,11.00
2023-01-19T06:22:34.557Z,11.27
2023-01-19T06:25:02.275Z,11.90
2023-01-19T06:27:29.771Z,11.75
2023-01-19T06:29:57.262Z,11.30
2023-01-19T06:32:24.813Z,9.73
2023-01-19T06:34:54.207Z,10.70
2023-01-19T06:37:21.916Z,11.67
2023-01-19T06:39:49.389Z,11.73
2023-01-19T06:42:16.899Z,11.80
2023-01-19T06:44:47.481Z,10.53
2023-01-19T06:47:16.407Z,11.20
2023-01-19T06:49:44.484Z,11.10
2023-01-19T06:52:15.810Z,10.45
2023-01-19T06:54:45.388Z,10.47
2023-01-19T06:57:13.260Z,10.40
2023-01-19T06:59:40.970Z,12.20
2023-01-19T07:02:27.715Z,9.93
2023-01-19T07:04:56.087Z,9.77
2023-01-19T07:07:25.104Z,10.98
2023-01-19T07:09:54.007Z,11.25
2023-01-19T07:12:21.797Z,10.77
2023-01-19T07:14:49.500Z,23.42
2023-01-19T07:17:17.044Z,13.07
2023-01-19T07:19:44.527Z,11.70
2023-01-19T07:22:12.036Z,11.07
2023-01-19T07:24:41.304Z,9.80
2023-01-19T07:27:08.748Z,10.85
2023-01-19T07:29:36.217Z,11.93
2023-01-19T07:32:03.681Z,11.20
2023-01-19T07:34:31.203Z,11.40
2023-01-19T07:36:58.704Z,10.40
2023-01-19T07:39:26.150Z,10.70
2023-01-19T07:41:55.236Z,10.40
2023-01-19T07:44:22.934Z,9.63
2023-01-19T07:46:51.093Z,11.40
2023-01-19T07:49:18.560Z,10.30
2023-01-19T07:51:46.026Z,10.73
2023-01-19T07:54:13.513Z,10.57
2023-01-19T07:56:40.977Z,12.43
2023-01-19T07:59:10.761Z,11.02
2023-01-19T08:01:38.613Z,10.68
2023-01-19T08:04:06.259Z,10.35
2023-01-19T08:06:35.047Z,11.33
2023-01-19T08:09:05.408Z,11.60
2023-01-19T08:11:32.977Z,12.23
2023-01-19T08:14:00.775Z,10.57
2023-01-19T08:16:29.559Z,10.67
2023-01-19T08:18:57.043Z,11.37
2023-01-19T08:21:24.549Z,11.00
2023-01-19T08:23:55.825Z,13.60
2023-01-19T08:26:29.093Z,12.10
2023-01-19T08:28:57.937Z,10.90
2023-01-19T08:31:26.244Z,11.47
2023-01-19T08:33:55.139Z,12.65
2023-01-19T08:36:24.869Z,11.90
2023-01-19T08:38:52.354Z,10.73
2023-01-19T08:41:19.852Z,9.63
2023-01-19T08:43:47.546Z,11.00
2023-01-19T08:46:17.320Z,11.67
2023-01-19T08:48:45.240Z,11.43
2023-01-19T08:51:15.160Z,10.60
2023-01-19T08:53:42.762Z,9.80
2023-01-19T08:56:12.492Z,11.03
2023-01-19T08:58:40.531Z,10.70
2023-01-19T09:01:08.751Z,8.50
2023-01-19T09:03:36.379Z,10.20
2023-01-19T09:06:06.601Z,9.47
2023-01-19T09:08:35.426Z,9.23
2023-01-19T09:11:03.408Z,9.33
2023-01-19T09:13:30.918Z,10.20
2023-01-19T09:15:58.494Z,10.70
2023-01-19T09:18:25.984Z,8.60
2023-01-19T09:20:54.860Z,9.57
2023-01-19T09:23:22.562Z,10.17
2023-01-19T09:25:57.149Z,9.20
2023-01-19T09:28:24.853Z,8.67
2023-01-19T09:30:52.372Z,10.23
2023-01-19T09:33:20.616Z,10.20
2023-01-19T09:35:51.717Z,9.50
2023-01-19T09:38:20.512Z,10.33
2023-01-19T09:40:51.735Z,8.47
2023-01-19T09:43:25.460Z,9.70
2023-01-19T09:45:55.239Z,9.27
2023-01-19T09:48:29.519Z,10.73
2023-01-19T09:51:00.535Z,9.00
2023-01-19T09:53:41.313Z,8.77
2023-01-19T09:56:13.723Z,8.40
2023-01-19T09:58:41.734Z,9.03
2023-01-19T10:01:16.791Z,8.27
2023-01-19T10:03:44.354Z,7.70
2023-01-19T10:06:13.899Z,10.10
2023-01-19T10:08:46.648Z,9.30
2023-01-19T10:11:41.882Z,8.63
2023-01-19T10:14:19.705Z,9.23
2023-01-19T10:16:52.633Z,8.20
2023-01-19T10:19:23.569Z,7.87
2023-01-19T10:21:51.701Z,8.20
2023-01-19T10:24:22.536Z,6.63
2023-01-19T10:26:52.650Z,8.03
2023-01-19T10:29:23.997Z,7.87
2023-01-19T10:31:53.086Z,7.60
2023-01-19T10:34:23.574Z,6.67
2023-01-19T10:36:56.321Z,6.67
2023-01-19T10:39:23.925Z,5.97
2023-01-19T10:41:54.145Z,6.70
2023-01-19T10:44:25.859Z,6.50
2023-01-19T10:46:54.348Z,6.87
2023-01-19T10:49:27.417Z,7.30
2023-01-19T10:51:55.741Z,6.70
2023-01-19T10:54:24.080Z,5.87
2023-01-19T10:56:54.629Z,6.50
2023-01-19T10:59:34.160Z,6.43
2023-01-19T11:02:16.140Z,5.50
2023-01-19T11:04:47.262Z,4.90
2023-01-19T11:07:18.739Z,5.00
2023-01-19T11:09:46.419Z,4.63
2023-01-19T11:12:19.691Z,4.70
2023-01-19T11:14:48.207Z,4.03
2023-01-19T11:17:20.432Z,5.27
2023-01-19T11:19:56.160Z,4.03
2023-01-19T11:22:28.071Z,4.37
2023-01-19T11:24:59.324Z,4.60
2023-01-19T11:27:28.916Z,4.87
2023-01-19T11:30:05.230Z,4.40
2023-01-19T11:32:35.662Z,4.90
2023-01-19T11:35:03.816Z,5.22
2023-01-19T11:37:34.425Z,4.30
2023-01-19T11:40:04.138Z,5.20
2023-01-19T11:42:36.453Z,5.00
2023-01-19T11:45:07.585Z,5.90
2023-01-19T11:47:39.896Z,5.17
2023-01-19T11:50:14.665Z,4.77
2023-01-19T11:52:46.118Z,4.67
2023-01-19T11:55:18.888Z,4.60
2023-01-19T11:57:49.830Z,3.90
2023-01-19T12:00:36.117Z,4.70
2023-01-19T12:03:09.363Z,3.83
2023-01-19T12:05:37.755Z,4.30
2023-01-19T12:08:07.169Z,4.17
2023-01-19T12:10:37.176Z,3.30
2023-01-19T12:13:06.000Z,4.20
2023-01-19T12:15:37.411Z,4.87
2023-01-19T12:18:07.658Z,3.90
2023-01-19T12:20:37.916Z,4.10
2023-01-19T12:23:14.887Z,3.60
2023-01-19T12:25:48.388Z,4.17
2023-01-19T12:28:18.467Z,4.03
2023-01-19T12:30:46.050Z,4.03
2023-01-19T12:33:35.773Z,3.77
2023-01-19T12:36:05.059Z,4.43
2023-01-19T12:38:44.915Z,4.43
2023-01-19T12:41:23.696Z,3.70
2023-01-19T12:44:23.039Z,3.50
2023-01-19T12:46:52.625Z,3.17
2023-01-19T12:49:26.187Z,4.70
2023-01-19T12:51:55.149Z,4.37
2023-01-19T12:54:28.153Z,3.73
2023-01-19T12:56:58.953Z,4.73
2023-01-19T12:59:28.620Z,4.40
2023-01-19T13:02:39.148Z,4.63
2023-01-19T13:05:23.197Z,4.70
2023-01-19T13:08:22.714Z,5.37
2023-01-19T13:11:26.006Z,5.00
2023-01-19T13:14:36.245Z,4.80
2023-01-19T13:17:20.318Z,4.97
2023-01-19T13:20:01.483Z,4.30
2023-01-19T13:23:02.560Z,5.20
2023-01-19T13:25:33.658Z,4.10
2023-01-19T13:28:01.910Z,4.43
2023-01-19T13:30:30.664Z,4.60
2023-01-19T13:33:06.501Z,3.90
2023-01-19T13:35:34.009Z,4.57
2023-01-19T13:38:01.746Z,5.30
2023-01-19T13:40:36.717Z,4.77
2023-01-19T13:43:04.655Z,4.93
2023-01-19T13:45:34.309Z,3.97
2023-01-19T13:48:06.053Z,5.47
2023-01-19T13:50:35.399Z,5.80
2023-01-19T13:53:04.591Z,5.70
2023-01-19T13:55:32.500Z,5.30
2023-01-19T13:58:00.025Z,5.60
2023-01-19T14:00:29.002Z,4.60
2023-01-19T14:02:59.133Z,5.67
2023-01-19T14:05:29.814Z,5.03
2023-01-19T14:08:05.373Z,5.50
2023-01-19T14:10:33.647Z,5.60
2023-01-19T14:13:02.634Z,5.17
2023-01-19T14:15:33.729Z,6.90
2023-01-19T14:18:13.140Z,5.80
2023-01-19T14:20:42.497Z,5.47
2023-01-19T14:23:41.346Z,4.70
2023-01-19T14:26:43.114Z,5.97
2023-01-19T14:29:25.491Z,5.03
2023-01-19T14:32:04.860Z,5.13
2023-01-19T14:34:38.785Z,5.70
2023-01-19T14:37:16.602Z,5.70
2023-01-19T14:39:46.293Z,6.40
2023-01-19T14:42:17.771Z,5.80
2023-01-19T14:44:48.888Z,6.40
2023-01-19T14:47:33.109Z,5.80
2023-01-19T14:50:04.917Z,6.47
2023-01-19T14:52:35.901Z,5.67
2023-01-19T14:55:06.694Z,5.13
2023-01-19T14:57:35.321Z,5.37
2023-01-19T15:00:11.731Z,5.67
2023-01-19T15:02:39.306Z,5.83
2023-01-19T15:05:08.773Z,5.90
2023-01-19T15:07:38.082Z,6.80
2023-01-19T15:10:06.625Z,6.13
2023-01-19T15:12:34.097Z,7.00
2023-01-19T15:15:02.198Z,5.57
2023-01-19T15:17:29.759Z,4.90
2023-01-19T15:19:58.009Z,5.50
2023-01-19T15:22:28.216Z,6.07
2023-01-19T15:24:59.960Z,6.57
2023-01-19T15:27:27.915Z,6.53
2023-01-19T15:29:55.516Z,6.67
2023-01-19T15:32:23.050Z,7.23
2023-01-19T15:34:50.561Z,7.00
2023-01-19T15:37:18.078Z,7.93
2023-01-19T15:39:45.691Z,7.87
2023-01-19T15:42:15.904Z,7.50
2023-01-19T15:44:45.031Z,8.43
2023-01-19T15:47:12.651Z,8.23
2023-01-19T15:49:40.246Z,6.80
2023-01-19T15:52:07.909Z,7.10
2023-01-19T15:54:35.578Z,6.80
2023-01-19T15:57:03.144Z,6.63
2023-01-19T15:59:32.477Z,7.10
2023-01-19T16:02:00.253Z,6.13
2023-01-19T16:04:28.096Z,5.97
2023-01-19T16:06:55.670Z,6.50
2023-01-19T16:09:23.615Z,6.67
2023-01-19T16:11:51.602Z,6.80
2023-01-19T16:14:19.266Z,5.97
2023-01-19T16:16:48.346Z,6.03
2023-01-19T16:19:16.590Z,6.00
2023-01-19T16:21:44.894Z,6.37
2023-01-19T16:24:12.564Z,6.60
2023-01-19T16:26:40.710Z,6.27
2023-01-19T16:29:10.634Z,8.00
2023-01-19T16:31:39.257Z,8.40
2023-01-19T16:34:08.561Z,8.20
2023-01-19T16:36:37.679Z,8.00
2023-01-19T16:39:07.364Z,7.70
2023-01-19T16:41:35.221Z,8.17
2023-01-19T16:44:02.963Z,8.40
2023-01-19T16:46:33.832Z,9.00
2023-01-19T16:49:03.113Z,8.23
2023-01-19T16:51:32.517Z,8.17
2023-01-19T16:54:00.128Z,8.33
2023-01-19T16:56:27.881Z,8.63
2023-01-19T16:58:55.533Z,8.70
2023-01-19T17:01:23.491Z,8.60
2023-01-19T17:03:51.514Z,9.97
2023-01-19T17:06:22.586Z,8.43
2023-01-19T17:08:52.750Z,8.67
2023-01-19T17:11:21.851Z,8.33
2023-01-19T17:13:50.086Z,8.63
2023-01-19T17:16:17.765Z,9.17
2023-01-19T17:18:45.387Z,9.10
2023-01-19T17:21:14.120Z,8.90
2023-01-19T17:23:43.807Z,7.87
2023-01-19T17:26:12.759Z,9.10
2023-01-19T17:28:40.816Z,8.53
2023-01-19T17:31:09.393Z,8.83
2023-01-19T17:33:37.492Z,8.57
2023-01-19T17:36:05.540Z,7.63
2023-01-19T17:38:33.376Z,8.90
2023-01-19T17:41:01.053Z,8.47
2023-01-19T17:43:30.049Z,8.17
2023-01-19T17:45:57.808Z,8.03
2023-01-19T17:48:25.678Z,8.80
2023-01-19T17:50:54.145Z,9.30
2023-01-19T17:53:23.464Z,8.90
2023-01-19T17:55:51.036Z,8.90
2023-01-19T17:58:18.586Z,10.30
2023-01-19T18:00:47.699Z,9.53
2023-01-19T18:03:15.477Z,9.07
2023-01-19T18:05:54.018Z,10.57
2023-01-19T18:08:21.885Z,11.07
2023-01-19T18:10:54.448Z,12.30
2023-01-19T18:13:22.286Z,10.77
2023-01-19T18:15:51.870Z,10.00
2023-01-19T18:18:19.564Z,11.40
2023-01-19T18:20:47.023Z,11.37
2023-01-19T18:23:14.941Z,10.87
2023-01-19T18:25:43.115Z,10.93
2023-01-19T18:28:10.678Z,11.83
2023-01-19T18:30:38.735Z,10.17
2023-01-19T18:33:07.633Z,11.37
2023-01-19T18:35:36.021Z,9.50
2023-01-19T18:38:03.473Z,11.10
2023-01-19T18:40:30.943Z,11.27
2023-01-19T18:42:58.413Z,11.10
2023-01-19T18:45:25.969Z,10.57
2023-01-19T18:47:53.458Z,11.27
2023-01-19T18:50:22.469Z,11.77
2023-01-19T18:52:51.296Z,9.53
2023-01-19T18:55:19.050Z,10.60
2023-01-19T18:57:46.493Z,10.60
2023-01-19T19:00:15.106Z,13.37
2023-01-19T19:02:42.736Z,10.73
2023-01-19T19:05:10.570Z,10.93
2023-01-19T19:07:39.374Z,11.07
2023-01-19T19:10:07.876Z,12.20
2023-01-19T19:12:35.481Z,10.50
2023-01-19T19:15:02.936Z,11.50
2023-01-19T19:17:30.434Z,12.30
2023-01-19T19:19:57.952Z,10.40
2023-01-19T19:22:25.719Z,12.13
2023-01-19T19:24:54.688Z,13.70
2023-01-19T19:27:22.433Z,12.33
2023-01-19T19:29:50.231Z,13.90
2023-01-19T19:32:20.319Z,12.43
2023-01-19T19:34:50.504Z,10.50
2023-01-19T19:37:18.109Z,11.37
2023-01-19T19:39:45.625Z,9.97
2023-01-19T19:42:14.655Z,10.70
2023-01-19T19:44:42.484Z,10.87
2023-01-19T19:47:10.188Z,11.20
2023-01-19T19:49:37.910Z,12.30
2023-01-19T19:52:08.697Z,11.33
2023-01-19T19:54:36.557Z,10.97
2023-01-19T19:57:04.432Z,11.60
2023-01-19T19:59:33.485Z,11.90
2023-01-19T20:02:01.205Z,12.50
2023-01-19T20:04:28.837Z,13.23
2023-01-19T20:06:56.353Z,13.23
2023-01-19T20:09:24.148Z,10.70
2023-01-19T20:11:52.418Z,13.50
2023-01-19T20:14:22.325Z,11.77
2023-01-19T20:16:52.206Z,10.25
2023-01-19T20:19:19.787Z,13.80
2023-01-19T20:21:47.513Z,11.93
2023-01-19T20:24:17.099Z,11.87
2023-01-19T20:26:46.854Z,10.33
2023-01-19T20:29:14.429Z,12.32
2023-01-19T20:31:44.307Z,12.20
2023-01-19T20:34:15.585Z,11.53
2023-01-19T20:36:44.235Z,10.63
2023-01-19T20:39:12.711Z,11.60
2023-01-19T20:41:44.888Z,12.40
2023-01-19T20:44:12.856Z,12.50
2023-01-19T20:46:40.543Z,12.10
2023-01-19T20:49:08.200Z,11.17
2023-01-19T20:51:37.374Z,10.73
2023-01-19T20:54:05.142Z,12.95
2023-01-19T20:56:32.747Z,12.57
2023-01-19T20:59:02.003Z,11.53
2023-01-19T21:01:29.653Z,14.10
2023-01-19T21:03:57.430Z,11.83
2023-01-19T21:06:25.571Z,12.40
2023-01-19T21:08:54.912Z,11.53
2023-01-19T21:11:23.937Z,11.90
2023-01-19T21:13:55.676Z,12.90
2023-01-19T21:16:24.401Z,13.03
2023-01-19T21:18:52.193Z,11.77
2023-01-19T21:21:29.735Z,11.83
2023-01-19T21:24:00.516Z,11.20
2023-01-19T21:26:29.641Z,10.60
2023-01-19T21:28:58.303Z,12.67
2023-01-19T21:31:27.813Z,10.90
2023-01-19T21:33:55.955Z,12.53
2023-01-19T21:36:24.538Z,10.60
2023-01-19T21:38:52.351Z,13.80
2023-01-19T21:41:21.442Z,12.40
2023-01-19T21:43:49.001Z,11.10
2023-01-19T21:46:18.865Z,12.50
2023-01-19T21:48:46.807Z,12.63
2023-01-19T21:51:14.806Z,11.57
2023-01-19T21:53:42.826Z,11.40
2023-01-19T21:56:11.315Z,12.30
2023-01-19T21:58:40.307Z,12.10
2023-01-19T22:01:10.748Z,12.30
2023-01-19T22:03:38.484Z,12.10
2023-01-19T22:06:07.200Z,12.47
2023-01-19T22:08:34.817Z,12.03
2023-01-19T22:11:05.327Z,11.83
2023-01-19T22:13:33.143Z,11.43
2023-01-19T22:16:02.938Z,11.07
2023-01-19T22:18:35.221Z,12.37
2023-01-19T22:21:10.587Z,11.98
2023-01-19T22:23:38.288Z,11.05
2023-01-19T22:26:06.313Z,11.20
2023-01-19T22:28:33.881Z,11.00
2023-01-19T22:31:08.553Z,12.03
2023-01-19T22:33:36.348Z,13.27
2023-01-19T22:36:12.553Z,12.80
2023-01-19T22:38:40.562Z,12.13
2023-01-19T22:41:15.928Z,13.70
2023-01-19T22:43:44.053Z,12.37
2023-01-19T22:46:13.062Z,12.07
2023-01-19T22:48:41.386Z,12.80
2023-01-19T22:51:09.246Z,12.77
2023-01-19T22:53:36.844Z,12.88
2023-01-19T22:56:11.693Z,11.13
2023-01-19T22:58:40.799Z,10.80
2023-01-19T23:01:09.020Z,11.47
2023-01-19T23:03:38.040Z,11.80
2023-01-19T23:06:06.300Z,11.53
2023-01-19T23:08:34.202Z,10.43
2023-01-19T23:11:05.413Z,10.83
2023-01-19T23:13:32.947Z,11.43
2023-01-19T23:16:00.807Z,11.40
2023-01-19T23:18:28.468Z,11.47
2023-01-19T23:21:03.256Z,11.13
2023-01-19T23:23:30.890Z,10.90
2023-01-19T23:26:01.274Z,11.97
2023-01-19T23:28:28.899Z,12.20
2023-01-19T23:30:56.657Z,11.83
2023-01-19T23:33:24.426Z,12.63
2023-01-19T23:35:51.975Z,12.73
2023-01-19T23:38:22.470Z,11.10
2023-01-19T23:40:50.271Z,11.88
2023-01-19T23:43:17.938Z,11.33
2023-01-19T23:45:45.543Z,11.30
2023-01-19T23:48:13.088Z,12.80
2023-01-19T23:50:41.462Z,12.20
2023-01-19T23:53:09.228Z,12.10
2023-01-19T23:55:38.154Z,12.60
2023-01-19T23:58:05.893Z,11.57
